createdAt,value
2023-02-23T00:02:07.295Z,32.03
2023-02-23T00:04:35.548Z,34.20
2023-02-23T00:07:02.915Z,34.97
2023-02-23T00:09:35.894Z,32.97
2023-02-23T00:12:09.330Z,34.40
2023-02-23T00:14:38.397Z,37.47
2023-02-23T00:17:13.939Z,38.13
2023-02-23T00:19:43.331Z,35.07
2023-02-23T00:22:10.454Z,36.33
2023-02-23T00:24:38.721Z,35.97
2023-02-23T00:27:06.509Z,34.67
2023-02-23T00:29:39.337Z,33.90
2023-02-23T00:32:06.289Z,35.03
2023-02-23T00:34:33.142Z,35.37
2023-02-23T00:36:59.839Z,35.80
2023-02-23T00:39:29.023Z,35.33
2023-02-23T00:41:57.202Z,38.30
2023-02-23T00:44:24.964Z,37.83
2023-02-23T00:46:52.894Z,38.83
2023-02-23T00:49:23.346Z,38.80
2023-02-23T00:51:50.641Z,37.63
2023-02-23T00:54:20.361Z,38.93
2023-02-23T00:56:48.014Z,37.77
2023-02-23T00:59:15.329Z,38.73
2023-02-23T01:01:42.880Z,37.07
2023-02-23T01:04:11.887Z,37.17
2023-02-23T01:06:40.781Z,37.73
2023-02-23T01:09:14.626Z,38.13
2023-02-23T01:11:42.057Z,37.83
2023-02-23T01:14:10.580Z,40.07
2023-02-23T01:16:38.858Z,36.73
2023-02-23T01:19:06.709Z,40.10
2023-02-23T01:21:37.929Z,39.30
2023-02-23T01:24:06.185Z,39.93
2023-02-23T01:26:45.199Z,39.00
2023-02-23T01:29:16.916Z,38.90
2023-02-23T01:31:48.278Z,39.93
2023-02-23T01:34:15.648Z,38.00
2023-02-23T01:36:44.534Z,38.70
2023-02-23T01:39:18.658Z,39.70
2023-02-23T01:41:45.774Z,38.47
2023-02-23T01:44:15.337Z,40.90
2023-02-23T01:46:46.161Z,42.03
2023-02-23T01:49:22.295Z,39.87
2023-02-23T01:52:17.015Z,42.43
2023-02-23T01:54:51.464Z,46.70
2023-02-23T01:57:24.803Z,47.23
2023-02-23T01:59:52.705Z,46.43
2023-02-23T02:02:30.607Z,48.53
2023-02-23T02:04:57.504Z,46.07
2023-02-23T02:07:29.790Z,47.67
2023-02-23T02:10:22.080Z,46.03
2023-02-23T02:12:57.552Z,48.73
2023-02-23T02:15:31.609Z,42.87
2023-02-23T02:18:23.352Z,47.63
2023-02-23T02:21:26.224Z,43.43
2023-02-23T02:24:47.511Z,49.60
2023-02-23T02:27:50.978Z,44.37
2023-02-23T02:30:57.639Z,44.77
2023-02-23T02:33:59.118Z,44.83
2023-02-23T02:37:07.056Z,45.37
2023-02-23T02:40:19.372Z,47.00
2023-02-23T02:43:00.295Z,45.00
2023-02-23T02:45:57.084Z,50.97
2023-02-23T02:48:33.116Z,47.83
2023-02-23T02:51:23.985Z,48.93
2023-02-23T02:54:07.234Z,48.13
2023-02-23T02:56:43.332Z,51.47
2023-02-23T02:59:34.824Z,50.30
2023-02-23T03:02:23.037Z,49.00
2023-02-23T03:05:08.227Z,50.50
2023-02-23T03:08:09.682Z,48.87
2023-02-23T03:11:24.895Z,48.50
2023-02-23T03:14:47.368Z,48.70
2023-02-23T03:17:54.146Z,47.57
2023-02-23T03:20:55.129Z,43.70
2023-02-23T03:24:25.402Z,45.47
2023-02-23T03:27:42.991Z,44.97
2023-02-23T03:30:45.931Z,42.50
2023-02-23T03:33:40.716Z,47.73
2023-02-23T03:36:44.708Z,46.07
2023-02-23T03:39:44.193Z,46.87
2023-02-23T03:42:36.937Z,43.30
2023-02-23T03:45:34.516Z,47.70
2023-02-23T03:48:25.431Z,47.83
2023-02-23T03:51:21.731Z,50.57
2023-02-23T03:54:16.072Z,50.73
2023-02-23T03:57:07.136Z,50.30
2023-02-23T04:00:02.407Z,47.20
2023-02-23T04:02:50.409Z,50.17
2023-02-23T04:05:38.597Z,49.87
2023-02-23T04:08:29.879Z,48.57
2023-02-23T04:12:02.562Z,43.40
2023-02-23T04:14:43.774Z,43.90
2023-02-23T04:17:12.491Z,44.60
2023-02-23T04:19:39.211Z,43.37
2023-02-23T04:22:05.933Z,41.10
2023-02-23T04:24:32.781Z,40.10
2023-02-23T04:26:59.522Z,43.03
2023-02-23T04:29:26.271Z,41.90
2023-02-23T04:31:54.057Z,43.37
2023-02-23T04:34:20.801Z,38.40
2023-02-23T04:36:47.808Z,43.07
2023-02-23T04:39:14.526Z,42.00
2023-02-23T04:41:41.263Z,37.00
2023-02-23T04:44:08.026Z,39.50
2023-02-23T04:46:34.768Z,42.93
2023-02-23T04:49:01.912Z,39.73
2023-02-23T04:51:32.125Z,36.47
2023-02-23T04:53:58.863Z,41.17
2023-02-23T04:56:25.940Z,42.03
2023-02-23T04:58:53.283Z,39.47
2023-02-23T05:01:22.310Z,41.27
2023-02-23T05:03:50.142Z,40.07
2023-02-23T05:06:20.943Z,44.07
2023-02-23T05:08:47.908Z,41.83
2023-02-23T05:11:14.820Z,43.23
2023-02-23T05:13:41.545Z,43.33
2023-02-23T05:16:08.708Z,42.00
2023-02-23T05:18:35.559Z,43.93
2023-02-23T05:21:07.067Z,46.23
2023-02-23T05:23:36.323Z,45.43
2023-02-23T05:26:13.348Z,43.60
2023-02-23T05:28:42.002Z,43.83
2023-02-23T05:31:09.934Z,53.47
2023-02-23T05:33:45.665Z,45.57
2023-02-23T05:36:16.640Z,42.80
2023-02-23T05:38:45.848Z,50.77
2023-02-23T05:41:20.589Z,44.50
2023-02-23T05:43:52.283Z,44.83
2023-02-23T05:46:25.582Z,42.63
2023-02-23T05:48:59.103Z,40.83
2023-02-23T05:51:27.807Z,40.23
2023-02-23T05:53:54.591Z,40.67
2023-02-23T05:56:22.004Z,37.63
2023-02-23T05:58:55.402Z,37.67
2023-02-23T06:01:23.395Z,42.77
2023-02-23T06:03:50.746Z,37.13
2023-02-23T06:06:18.457Z,34.67
2023-02-23T06:08:45.210Z,34.37
2023-02-23T06:11:12.258Z,39.07
2023-02-23T06:13:39.093Z,37.03
2023-02-23T06:16:07.932Z,33.83
2023-02-23T06:18:35.384Z,33.83
2023-02-23T06:21:04.086Z,36.77
2023-02-23T06:23:32.569Z,34.30
2023-02-23T06:26:00.000Z,33.80
2023-02-23T06:28:28.226Z,31.33
2023-02-23T06:30:56.092Z,35.17
2023-02-23T06:33:23.804Z,33.07
2023-02-23T06:35:50.600Z,32.27
2023-02-23T06:38:17.562Z,33.13
2023-02-23T06:40:44.707Z,27.40
2023-02-23T06:43:11.451Z,31.37
2023-02-23T06:45:38.773Z,30.80
2023-02-23T06:48:06.018Z,30.77
2023-02-23T06:50:32.812Z,34.43
2023-02-23T06:52:59.551Z,33.77
2023-02-23T06:55:26.441Z,30.77
2023-02-23T06:57:54.223Z,34.23
2023-02-23T07:00:21.732Z,34.17
2023-02-23T07:02:48.712Z,34.67
2023-02-23T07:05:16.205Z,33.53
2023-02-23T07:07:43.256Z,30.80
2023-02-23T07:10:11.043Z,36.40
2023-02-23T07:12:37.762Z,32.53
2023-02-23T07:15:05.814Z,36.27
2023-02-23T07:17:32.561Z,32.63
2023-02-23T07:19:59.361Z,37.17
2023-02-23T07:22:29.351Z,36.03
2023-02-23T07:24:57.495Z,33.70
2023-02-23T07:27:24.446Z,31.10
2023-02-23T07:29:51.328Z,36.17
2023-02-23T07:32:18.249Z,35.80
2023-02-23T07:34:45.954Z,37.70
2023-02-23T07:37:12.663Z,36.50
2023-02-23T07:39:39.424Z,33.00
2023-02-23T07:42:06.290Z,38.53
2023-02-23T07:44:33.068Z,36.27
2023-02-23T07:46:59.813Z,35.33
2023-02-23T07:49:26.803Z,37.77
2023-02-23T07:51:53.723Z,39.43
2023-02-23T07:54:21.812Z,40.07
2023-02-23T07:56:48.693Z,39.90
2023-02-23T07:59:15.414Z,44.87
2023-02-23T08:01:42.132Z,45.30
2023-02-23T08:04:09.181Z,38.83
2023-02-23T08:06:36.533Z,46.53
2023-02-23T08:09:05.220Z,42.10
2023-02-23T08:11:32.082Z,43.07
2023-02-23T08:14:00.290Z,44.40
2023-02-23T08:16:29.423Z,45.00
2023-02-23T08:19:00.932Z,47.03
2023-02-23T08:21:29.826Z,43.20
2023-02-23T08:24:02.954Z,40.87
2023-02-23T08:26:45.033Z,44.00
2023-02-23T08:29:14.309Z,42.37
2023-02-23T08:31:41.242Z,48.27
2023-02-23T08:34:13.652Z,45.80
2023-02-23T08:36:40.572Z,43.70
2023-02-23T08:39:14.699Z,44.97
2023-02-23T08:41:42.408Z,45.10
2023-02-23T08:44:09.344Z,41.77
2023-02-23T08:46:36.720Z,44.73
2023-02-23T08:49:05.989Z,42.77
2023-02-23T08:51:37.071Z,40.37
2023-02-23T08:54:04.000Z,42.03
2023-02-23T08:56:36.338Z,39.43
2023-02-23T08:59:03.099Z,40.60
2023-02-23T09:01:30.191Z,39.53
2023-02-23T09:04:04.987Z,39.47
2023-02-23T09:06:35.371Z,42.70
2023-02-23T09:09:02.360Z,42.43
2023-02-23T09:11:29.090Z,43.07
2023-02-23T09:13:55.944Z,42.27
2023-02-23T09:16:24.050Z,41.00
2023-02-23T09:18:51.967Z,41.70
2023-02-23T09:21:22.342Z,48.60
2023-02-23T09:23:51.260Z,48.23
2023-02-23T09:26:19.988Z,45.93
2023-02-23T09:28:47.474Z,44.60
2023-02-23T09:31:31.502Z,50.30
2023-02-23T09:34:01.724Z,41.43
2023-02-23T09:36:32.579Z,44.53
2023-02-23T09:38:59.534Z,45.43
2023-02-23T09:41:26.317Z,45.03
2023-02-23T09:44:31.320Z,41.07
2023-02-23T09:47:22.660Z,39.17
2023-02-23T09:49:51.748Z,41.63
2023-02-23T09:52:26.732Z,45.40
2023-02-23T09:54:54.096Z,61.27
2023-02-23T09:57:39.806Z,91.30
2023-02-23T10:04:46.969Z,54.53
2023-02-23T10:07:31.480Z,64.70
2023-02-23T10:14:07.864Z,74.43
2023-02-23T10:16:55.233Z,80.00
2023-02-23T10:20:03.580Z,63.47
2023-02-23T10:22:44.933Z,54.97
2023-02-23T10:25:25.820Z,60.93
2023-02-23T10:27:56.120Z,66.73
2023-02-23T10:30:32.900Z,66.00
2023-02-23T10:33:16.443Z,61.00
2023-02-23T10:35:47.012Z,56.13
2023-02-23T10:38:19.544Z,47.97
2023-02-23T10:40:55.223Z,40.73
2023-02-23T10:43:22.367Z,39.67
2023-02-23T10:45:52.814Z,42.27
2023-02-23T10:48:28.881Z,39.07
2023-02-23T10:51:02.962Z,37.03
2023-02-23T10:53:37.537Z,35.47
2023-02-23T10:56:20.723Z,39.50
2023-02-23T10:59:01.671Z,40.33
2023-02-23T11:02:00.957Z,37.87
2023-02-23T11:04:32.542Z,41.73
2023-02-23T11:07:16.690Z,35.80
2023-02-23T11:09:47.556Z,35.10
2023-02-23T11:12:43.354Z,41.87
2023-02-23T11:15:50.795Z,38.67
2023-02-23T11:18:25.491Z,42.70
2023-02-23T11:20:53.367Z,40.87
2023-02-23T11:23:39.045Z,39.07
2023-02-23T11:26:45.736Z,40.17
2023-02-23T11:29:25.537Z,43.90
2023-02-23T11:31:58.271Z,37.07
2023-02-23T11:34:33.070Z,40.30
2023-02-23T11:37:20.703Z,43.00
2023-02-23T11:40:27.101Z,41.17
2023-02-23T11:43:07.959Z,38.27
2023-02-23T11:45:58.357Z,38.60
2023-02-23T11:49:08.773Z,34.10
2023-02-23T11:51:39.994Z,34.00
2023-02-23T11:54:22.139Z,35.80
2023-02-23T11:56:52.177Z,36.00
2023-02-23T11:59:27.120Z,35.83
2023-02-23T12:02:03.897Z,36.73
2023-02-23T12:04:40.703Z,37.03
2023-02-23T12:07:46.302Z,43.27
2023-02-23T12:10:28.115Z,38.77
2023-02-23T12:13:07.570Z,40.87
2023-02-23T12:16:15.551Z,44.97
2023-02-23T12:19:04.272Z,42.30
2023-02-23T12:22:00.174Z,42.93
2023-02-23T12:24:44.454Z,42.37
2023-02-23T12:27:17.652Z,41.10
2023-02-23T12:30:38.210Z,45.50
2023-02-23T12:33:22.803Z,44.33
2023-02-23T12:35:59.141Z,49.27
2023-02-23T12:38:49.126Z,47.43
2023-02-23T12:41:45.255Z,45.33
2023-02-23T12:44:48.614Z,50.70
2023-02-23T12:47:52.874Z,50.30
2023-02-23T12:50:37.984Z,47.77
2023-02-23T12:53:42.905Z,45.30
2023-02-23T12:56:43.834Z,48.00
2023-02-23T12:59:43.917Z,45.63
2023-02-23T13:02:29.893Z,39.63
2023-02-23T13:05:15.315Z,41.50
2023-02-23T13:08:20.655Z,41.27
2023-02-23T13:11:08.592Z,43.10
2023-02-23T13:14:26.694Z,37.27
2023-02-23T13:17:09.230Z,40.73
2023-02-23T13:19:49.080Z,40.17
2023-02-23T13:22:36.596Z,34.40
2023-02-23T13:25:28.185Z,38.30
2023-02-23T13:28:01.674Z,34.63
2023-02-23T13:30:35.945Z,27.33
2023-02-23T13:33:19.233Z,28.90
2023-02-23T13:35:46.217Z,29.87
2023-02-23T13:38:29.989Z,29.37
2023-02-23T13:41:33.904Z,28.40
2023-02-23T13:44:32.551Z,25.27
2023-02-23T13:47:38.094Z,28.37
2023-02-23T13:50:18.079Z,26.47
2023-02-23T13:52:46.678Z,27.07
2023-02-23T13:55:40.009Z,29.53
2023-02-23T13:58:19.729Z,30.67
2023-02-23T14:01:03.334Z,26.10
2023-02-23T14:03:39.795Z,31.90
2023-02-23T14:06:08.037Z,28.17
2023-02-23T14:08:39.138Z,28.43
2023-02-23T14:11:06.957Z,28.60
2023-02-23T14:13:41.477Z,26.03
2023-02-23T14:16:19.594Z,26.87
2023-02-23T14:19:11.087Z,27.10
2023-02-23T14:21:59.041Z,27.13
2023-02-23T14:24:27.896Z,27.23
2023-02-23T14:27:41.492Z,28.70
2023-02-23T14:30:11.859Z,25.13
2023-02-23T14:32:42.285Z,28.23
2023-02-23T14:35:33.931Z,25.87
2023-02-23T14:38:08.011Z,25.23
2023-02-23T14:40:42.576Z,27.33
2023-02-23T14:43:39.003Z,27.37
2023-02-23T14:46:27.984Z,25.17
2023-02-23T14:49:10.287Z,28.73
2023-02-23T14:51:48.026Z,22.53
2023-02-23T14:54:35.344Z,24.37
2023-02-23T14:57:20.087Z,23.70
2023-02-23T15:00:01.606Z,22.20
2023-02-23T15:02:30.438Z,26.43
2023-02-23T15:04:57.563Z,23.67
2023-02-23T15:07:40.745Z,21.50
2023-02-23T15:10:20.382Z,27.97
2023-02-23T15:12:47.474Z,25.93
2023-02-23T15:15:20.885Z,24.30
2023-02-23T15:17:57.715Z,23.67
2023-02-23T15:23:05.782Z,26.23
2023-02-23T15:25:39.197Z,24.13
2023-02-23T15:28:26.335Z,25.27
2023-02-23T15:30:59.879Z,24.83
2023-02-23T15:33:30.245Z,21.67
2023-02-23T15:36:02.962Z,21.67
2023-02-23T15:38:43.400Z,21.30
2023-02-23T15:41:36.496Z,22.27
2023-02-23T15:44:22.806Z,25.63
2023-02-23T15:46:58.854Z,23.93
2023-02-23T15:49:37.281Z,23.53
2023-02-23T15:52:14.823Z,25.03
2023-02-23T15:55:01.556Z,27.00
2023-02-23T15:57:52.794Z,23.87
2023-02-23T16:00:43.142Z,25.87
2023-02-23T16:03:34.127Z,25.60
2023-02-23T16:06:06.624Z,26.33
2023-02-23T16:08:36.735Z,27.37
2023-02-23T16:11:19.124Z,26.97
2023-02-23T16:13:49.101Z,28.77
2023-02-23T16:16:20.200Z,28.73
2023-02-23T16:18:54.632Z,29.60
2023-02-23T16:21:25.325Z,26.53
2023-02-23T16:23:55.152Z,31.17
2023-02-23T16:26:57.602Z,31.63
2023-02-23T16:29:41.510Z,29.13
2023-02-23T16:32:21.192Z,31.13
2023-02-23T16:34:54.853Z,27.50
2023-02-23T16:37:26.056Z,28.50
2023-02-23T16:39:55.888Z,34.63
2023-02-23T16:42:33.739Z,30.93
2023-02-23T16:45:01.454Z,27.87
2023-02-23T16:47:50.071Z,33.83
2023-02-23T16:50:24.414Z,29.57
2023-02-23T16:52:53.468Z,31.87
2023-02-23T16:55:29.733Z,30.93
2023-02-23T16:58:03.140Z,30.33
2023-02-23T17:00:33.334Z,35.33
2023-02-23T17:03:00.897Z,26.57
2023-02-23T17:05:29.124Z,29.07
2023-02-23T17:07:58.169Z,27.67
2023-02-23T17:10:30.869Z,31.17
2023-02-23T17:13:06.174Z,29.03
2023-02-23T17:15:37.698Z,31.90
2023-02-23T17:18:05.553Z,32.10
2023-02-23T17:20:33.305Z,35.20
2023-02-23T17:23:02.035Z,31.27
2023-02-23T17:25:29.325Z,30.47
2023-02-23T17:27:58.313Z,33.63
2023-02-23T17:30:26.053Z,34.93
2023-02-23T17:32:57.108Z,31.10
2023-02-23T17:35:25.691Z,32.83
2023-02-23T17:37:53.072Z,29.97
2023-02-23T17:40:30.973Z,33.27
2023-02-23T17:43:00.838Z,35.53
2023-02-23T17:45:28.939Z,35.30
2023-02-23T17:47:56.971Z,30.40
2023-02-23T17:50:26.301Z,31.57
2023-02-23T17:52:54.302Z,33.27
2023-02-23T17:55:23.063Z,39.13
2023-02-23T17:57:49.809Z,31.93
2023-02-23T18:00:18.465Z,30.00
2023-02-23T18:02:45.835Z,26.97
2023-02-23T18:05:14.270Z,30.40
2023-02-23T18:07:41.534Z,25.23
2023-02-23T18:10:09.582Z,25.93
2023-02-23T18:12:36.600Z,28.27
2023-02-23T18:15:03.656Z,28.70
2023-02-23T18:17:32.468Z,26.37
2023-02-23T18:20:00.333Z,26.80
2023-02-23T18:22:27.191Z,29.90
2023-02-23T18:24:54.061Z,28.00
2023-02-23T18:27:20.824Z,26.73
2023-02-23T18:29:47.600Z,30.90
2023-02-23T18:32:14.450Z,28.40
2023-02-23T18:34:41.373Z,29.07
2023-02-23T18:37:09.886Z,27.17
2023-02-23T18:39:36.744Z,28.23
2023-02-23T18:42:04.392Z,24.97
2023-02-23T18:44:33.436Z,26.87
2023-02-23T18:47:02.350Z,25.67
2023-02-23T18:49:29.114Z,24.50
2023-02-23T18:51:55.869Z,24.30
2023-02-23T18:54:25.829Z,25.20
2023-02-23T18:56:52.584Z,27.27
2023-02-23T18:59:19.312Z,25.40
2023-02-23T19:01:47.860Z,28.40
2023-02-23T19:04:15.288Z,29.47
2023-02-23T19:06:45.222Z,24.93
2023-02-23T19:09:14.404Z,23.77
2023-02-23T19:11:42.934Z,23.00
2023-02-23T19:14:16.544Z,21.60
2023-02-23T19:16:46.657Z,22.53
2023-02-23T19:19:15.114Z,23.33
2023-02-23T19:21:42.192Z,23.70
2023-02-23T19:24:09.435Z,24.13
2023-02-23T19:26:37.470Z,24.87
2023-02-23T19:29:04.877Z,22.60
2023-02-23T19:31:31.895Z,22.83
2023-02-23T19:33:59.622Z,21.57
2023-02-23T19:36:33.786Z,20.33
2023-02-23T19:39:11.047Z,23.37
2023-02-23T19:41:39.686Z,22.90
2023-02-23T19:44:06.768Z,23.33
2023-02-23T19:46:34.883Z,24.63
2023-02-23T19:49:02.049Z,24.10
2023-02-23T19:51:29.181Z,21.83
2023-02-23T19:53:58.190Z,23.73
2023-02-23T19:56:27.853Z,22.13
2023-02-23T19:58:56.975Z,23.67
2023-02-23T20:01:27.475Z,23.10
2023-02-23T20:03:56.581Z,24.97
2023-02-23T20:06:27.388Z,21.83
2023-02-23T20:08:55.052Z,21.43
2023-02-23T20:11:22.625Z,20.33
2023-02-23T20:13:50.879Z,21.60
2023-02-23T20:16:17.784Z,22.27
2023-02-23T20:18:44.933Z,23.87
2023-02-23T20:21:16.367Z,20.83
2023-02-23T20:23:45.603Z,24.37
2023-02-23T20:26:17.623Z,21.43
2023-02-23T20:28:44.836Z,20.40
2023-02-23T20:31:20.909Z,21.83
2023-02-23T20:33:51.379Z,22.30
2023-02-23T20:36:20.628Z,22.37
2023-02-23T20:38:47.860Z,23.27
2023-02-23T20:41:15.078Z,21.33
2023-02-23T20:43:43.658Z,21.63
2023-02-23T20:46:13.656Z,21.17
2023-02-23T20:48:42.376Z,27.47
2023-02-23T20:51:14.215Z,20.37
2023-02-23T20:53:46.523Z,20.67
2023-02-23T20:56:16.688Z,28.53
2023-02-23T20:58:44.394Z,23.87
2023-02-23T21:01:18.412Z,23.50
2023-02-23T21:03:45.347Z,25.37
2023-02-23T21:06:12.442Z,24.87
2023-02-23T21:08:42.107Z,23.80
2023-02-23T21:11:08.953Z,22.53
2023-02-23T21:13:36.670Z,20.83
2023-02-23T21:16:03.704Z,26.47
2023-02-23T21:18:31.839Z,20.80
2023-02-23T21:21:09.302Z,21.97
2023-02-23T21:23:39.591Z,23.27
2023-02-23T21:26:15.919Z,23.50
2023-02-23T21:28:45.229Z,21.67
2023-02-23T21:31:14.238Z,29.43
2023-02-23T21:33:43.706Z,24.30
2023-02-23T21:36:18.976Z,27.36
2023-02-23T21:38:45.941Z,27.13
2023-02-23T21:41:14.525Z,30.80
2023-02-23T21:43:43.730Z,32.20
2023-02-23T21:46:15.619Z,25.57
2023-02-23T21:48:43.370Z,26.90
2023-02-23T21:51:14.851Z,29.70
2023-02-23T21:53:43.334Z,28.40
2023-02-23T21:56:16.829Z,36.63
2023-02-23T21:58:53.031Z,29.57
2023-02-23T22:01:27.082Z,30.10
2023-02-23T22:03:55.151Z,24.87
2023-02-23T22:06:28.968Z,22.37
2023-02-23T22:08:56.526Z,21.03
2023-02-23T22:11:26.854Z,22.70
2023-02-23T22:13:59.536Z,19.40
2023-02-23T22:16:41.281Z,19.00
2023-02-23T22:19:09.317Z,20.10
2023-02-23T22:21:41.647Z,21.07
2023-02-23T22:24:10.773Z,18.27
2023-02-23T22:26:53.984Z,21.27
2023-02-23T22:29:26.470Z,17.23
2023-02-23T22:31:53.628Z,22.10
2023-02-23T22:34:20.908Z,21.33
2023-02-23T22:36:48.599Z,22.37
2023-02-23T22:39:18.340Z,19.70
2023-02-23T22:41:47.504Z,20.83
2023-02-23T22:44:19.029Z,18.20
2023-02-23T22:46:48.291Z,17.97
2023-02-23T22:49:16.237Z,20.80
2023-02-23T22:51:43.871Z,23.70
2023-02-23T22:54:13.341Z,22.67
2023-02-23T22:56:42.200Z,20.17
2023-02-23T22:59:10.943Z,21.57
2023-02-23T23:01:39.096Z,24.17
2023-02-23T23:04:10.361Z,22.10
2023-02-23T23:06:41.230Z,22.60
2023-02-23T23:09:12.123Z,21.03
2023-02-23T23:11:42.677Z,19.13
2023-02-23T23:14:11.434Z,21.83
2023-02-23T23:16:47.588Z,17.83
2023-02-23T23:19:19.111Z,23.23
2023-02-23T23:21:46.296Z,23.17
2023-02-23T23:24:13.743Z,21.57
2023-02-23T23:26:40.907Z,23.07
2023-02-23T23:29:11.565Z,21.23
2023-02-23T23:31:45.137Z,24.50
2023-02-23T23:34:14.024Z,23.50
2023-02-23T23:36:49.100Z,21.43
2023-02-23T23:39:22.950Z,24.97
2023-02-23T23:41:50.852Z,26.03
2023-02-23T23:44:21.686Z,21.57
2023-02-23T23:46:50.798Z,19.10
2023-02-23T23:49:25.473Z,22.53
2023-02-23T23:51:56.298Z,24.13
2023-02-23T23:54:30.805Z,20.00
2023-02-23T23:57:05.685Z,22.50
2023-02-23T23:59:34.787Z,19.97
